Time;durP1;ratioP1;P1;durP2;ratioP2;P2;SDS_P1;SDS_P2;PMS_P1;PMS_P2;Temp;Humidity;BMP_temperature;BMP_pressure;BME280_temperature;BME280_humidity;BME280_pressure;Samples;Min_cycle;Max_cycle;Signal;HPM_P1;HPM_P2
2022/01/27 00:03:16;;;;;;;31.70;13.52;;;;;;;;;;7357942;19;20127;-76
2022/01/27 00:05:51;;;;;;;31.40;13.10;;;;;;;;;;7371035;19;20143;-75
2022/01/27 00:08:28;;;;;;;32.97;13.95;;;;;;;;;;7362710;19;20139;-75
2022/01/27 00:11:00;;;;;;;34.72;15.25;;;;;;;;;;7368726;19;20639;-75
2022/01/27 00:13:34;;;;;;;33.83;13.88;;;;;;;;;;7364686;19;20136;-75
2022/01/27 00:16:16;;;;;;;31.85;15.15;;;;;;;;;;7367304;19;20143;-75
2022/01/27 00:18:50;;;;;;;29.55;15.90;;;;;;;;;;7377641;19;21091;-75
2022/01/27 00:21:21;;;;;;;37.47;14.65;;;;;;;;;;7372224;19;20172;-75
2022/01/27 00:23:51;;;;;;;35.05;15.48;;;;;;;;;;7364366;19;23032;-76
2022/01/27 00:26:21;;;;;;;35.92;14.60;;;;;;;;;;7372891;19;20692;-76
2022/01/27 00:28:51;;;;;;;43.53;16.10;;;;;;;;;;7365297;19;20139;-75
2022/01/27 00:31:22;;;;;;;34.25;14.82;;;;;;;;;;7374720;19;20925;-74
2022/01/27 00:33:54;;;;;;;33.75;14.20;;;;;;;;;;7374853;19;22692;-74
2022/01/27 00:36:24;;;;;;;38.58;15.93;;;;;;;;;;7374153;19;20404;-75
2022/01/27 00:38:54;;;;;;;32.45;14.57;;;;;;;;;;7375988;19;20135;-75
2022/01/27 00:41:26;;;;;;;34.03;14.70;;;;;;;;;;7371373;19;20135;-75
2022/01/27 00:43:56;;;;;;;29.45;14.52;;;;;;;;;;7365377;19;20139;-75
2022/01/27 00:46:25;;;;;;;38.22;14.98;;;;;;;;;;7373033;19;20258;-75
2022/01/27 00:48:58;;;;;;;38.60;17.42;;;;;;;;;;7371197;19;20171;-75
2022/01/27 00:51:31;;;;;;;31.58;14.43;;;;;;;;;;7369397;19;20127;-74
2022/01/27 00:54:06;;;;;;;42.40;16.00;;;;;;;;;;7378325;19;20135;-74
2022/01/27 00:56:44;;;;;;;32.95;14.40;;;;;;;;;;7364110;19;21022;-74
2022/01/27 01:02:11;;;;;;;42.10;15.98;;;;;;;;;;7350629;19;20649;-74
2022/01/27 01:04:47;;;;;;;35.25;13.95;;;;;;;;;;7365342;19;20144;-74
2022/01/27 01:07:20;;;;;;;40.92;15.88;;;;;;;;;;7375224;19;20642;-75
2022/01/27 01:15:34;;;;;;;36.33;15.73;;;;;;;;;;7372053;19;20171;-74
2022/01/27 01:18:18;;;;;;;49.85;16.10;;;;;;;;;;7371083;19;20171;-74
2022/01/27 01:21:16;;;;;;;40.13;15.75;;;;;;;;;;7362724;19;20183;-74
2022/01/27 01:32:07;;;;;;;48.13;15.35;;;;;;;;;;7361645;19;20147;-75
2022/01/27 01:34:44;;;;;;;40.10;16.00;;;;;;;;;;7379788;19;20152;-74
2022/01/27 01:37:18;;;;;;;36.72;16.35;;;;;;;;;;7364057;19;20679;-75
2022/01/27 01:39:50;;;;;;;37.78;14.95;;;;;;;;;;7375600;19;20139;-74
2022/01/27 01:42:20;;;;;;;41.70;15.32;;;;;;;;;;7373995;19;20136;-75
2022/01/27 01:44:50;;;;;;;36.00;14.93;;;;;;;;;;7373982;19;20134;-75
2022/01/27 01:47:20;;;;;;;43.58;16.15;;;;;;;;;;7378982;19;20131;-75
2022/01/27 01:49:50;;;;;;;30.85;14.80;;;;;;;;;;7366516;19;20132;-76
2022/01/27 01:52:22;;;;;;;36.38;15.13;;;;;;;;;;7371812;19;20343;-75
2022/01/27 01:54:52;;;;;;;34.67;14.32;;;;;;;;;;7371683;19;20143;-76
2022/01/27 01:57:22;;;;;;;41.47;15.90;;;;;;;;;;7368555;19;20159;-75
2022/01/27 01:59:51;;;;;;;40.40;14.52;;;;;;;;;;7372286;19;20147;-74
2022/01/27 02:02:21;;;;;;;34.05;14.38;;;;;;;;;;7361076;19;20166;-75
2022/01/27 02:04:53;;;;;;;34.13;14.48;;;;;;;;;;7371007;19;20131;-76
2022/01/27 02:07:34;;;;;;;37.50;14.05;;;;;;;;;;7367108;19;20140;-75
2022/01/27 02:10:15;;;;;;;27.95;14.48;;;;;;;;;;7374277;19;20812;-76
2022/01/27 02:18:26;;;;;;;40.33;15.80;;;;;;;;;;7367064;19;20140;-74
2022/01/27 02:21:01;;;;;;;30.08;14.32;;;;;;;;;;7368049;19;20181;-74
2022/01/27 02:23:31;;;;;;;30.88;14.85;;;;;;;;;;7371495;19;20521;-75
2022/01/27 02:26:00;;;;;;;30.75;14.57;;;;;;;;;;7369023;19;20142;-76
2022/01/27 02:28:30;;;;;;;33.75;13.82;;;;;;;;;;7375152;19;20641;-76
2022/01/27 02:31:00;;;;;;;33.70;13.18;;;;;;;;;;7365186;19;20736;-75
2022/01/27 02:33:33;;;;;;;41.28;15.10;;;;;;;;;;7375479;19;20140;-76
2022/01/27 02:36:06;;;;;;;35.40;15.60;;;;;;;;;;7365947;19;20132;-77
2022/01/27 02:38:38;;;;;;;40.47;16.10;;;;;;;;;;7368355;19;20777;-76
2022/01/27 02:41:10;;;;;;;35.90;13.88;;;;;;;;;;7366144;19;20550;-75
2022/01/27 02:43:40;;;;;;;28.38;13.93;;;;;;;;;;7374059;19;20138;-75
2022/01/27 02:46:13;;;;;;;29.60;14.15;;;;;;;;;;7363535;19;20134;-76
2022/01/27 02:48:42;;;;;;;35.60;14.65;;;;;;;;;;7374202;19;20131;-75
2022/01/27 02:51:14;;;;;;;29.50;14.40;;;;;;;;;;7370542;19;20174;-74
2022/01/27 02:53:44;;;;;;;34.80;15.05;;;;;;;;;;7363330;19;20143;-74
2022/01/27 02:56:14;;;;;;;31.67;12.60;;;;;;;;;;7371377;19;20140;-75
2022/01/27 02:58:43;;;;;;;35.53;14.00;;;;;;;;;;7369968;19;20147;-75
2022/01/27 03:01:13;;;;;;;32.85;14.85;;;;;;;;;;7365154;19;20162;-74
2022/01/27 03:03:43;;;;;;;36.40;14.55;;;;;;;;;;7369337;19;20139;-74
2022/01/27 03:06:15;;;;;;;26.73;13.45;;;;;;;;;;7373777;19;20136;-74
2022/01/27 03:08:45;;;;;;;31.83;13.52;;;;;;;;;;7372296;19;20139;-74
2022/01/27 03:11:15;;;;;;;30.50;15.25;;;;;;;;;;7364461;19;20131;-75
2022/01/27 03:13:48;;;;;;;32.90;13.50;;;;;;;;;;7370637;19;20124;-74
2022/01/27 03:16:17;;;;;;;33.90;14.68;;;;;;;;;;7366018;19;20147;-74
2022/01/27 03:18:47;;;;;;;29.63;14.75;;;;;;;;;;7370185;19;20183;-74
2022/01/27 03:21:21;;;;;;;31.70;14.40;;;;;;;;;;7366610;19;20138;-74
2022/01/27 03:23:51;;;;;;;31.58;14.45;;;;;;;;;;7371285;19;20540;-74
2022/01/27 03:26:24;;;;;;;27.05;14.30;;;;;;;;;;7373401;19;20203;-75
2022/01/27 03:28:53;;;;;;;33.25;13.82;;;;;;;;;;7368739;19;20135;-75
2022/01/27 03:31:23;;;;;;;24.92;11.55;;;;;;;;;;7367596;19;20700;-74
2022/01/27 03:33:53;;;;;;;30.73;13.02;;;;;;;;;;7366833;19;20959;-75
2022/01/27 03:36:25;;;;;;;27.17;11.73;;;;;;;;;;7373222;19;20166;-74
2022/01/27 03:38:57;;;;;;;27.90;13.63;;;;;;;;;;7368599;19;20602;-72
2022/01/27 03:41:32;;;;;;;27.90;12.70;;;;;;;;;;7366427;19;20147;-66
2022/01/27 03:44:01;;;;;;;26.63;13.18;;;;;;;;;;7364974;19;20134;-66
2022/01/27 03:46:31;;;;;;;23.70;11.60;;;;;;;;;;7365184;19;20642;-66
2022/01/27 03:49:01;;;;;;;27.27;12.15;;;;;;;;;;7362938;19;20135;-66
2022/01/27 03:51:33;;;;;;;26.42;12.68;;;;;;;;;;7369577;19;20594;-66
2022/01/27 03:54:05;;;;;;;32.50;13.27;;;;;;;;;;7372181;19;20578;-66
2022/01/27 03:56:37;;;;;;;27.17;11.70;;;;;;;;;;7368286;19;20143;-66
2022/01/27 03:59:07;;;;;;;24.70;14.48;;;;;;;;;;7360543;19;20135;-66
2022/01/27 04:01:38;;;;;;;23.63;10.95;;;;;;;;;;7363319;19;21612;-66
2022/01/27 04:04:08;;;;;;;22.85;11.98;;;;;;;;;;7362731;19;20606;-66
2022/01/27 04:06:41;;;;;;;26.77;13.30;;;;;;;;;;7365421;19;20531;-66
2022/01/27 04:09:11;;;;;;;25.65;11.90;;;;;;;;;;7364443;19;20139;-66
2022/01/27 04:11:42;;;;;;;30.20;14.02;;;;;;;;;;7367466;19;20139;-74
2022/01/27 04:14:12;;;;;;;20.88;11.80;;;;;;;;;;7371010;19;20146;-75
2022/01/27 04:16:41;;;;;;;23.10;12.82;;;;;;;;;;7360889;19;20142;-75
2022/01/27 04:19:11;;;;;;;23.75;13.48;;;;;;;;;;7368984;19;20151;-75
2022/01/27 04:21:46;;;;;;;28.33;13.70;;;;;;;;;;7362927;19;20598;-75
2022/01/27 04:24:18;;;;;;;25.30;12.82;;;;;;;;;;7362931;19;20146;-74
2022/01/27 04:26:55;;;;;;;22.17;12.07;;;;;;;;;;7359975;19;20540;-74
2022/01/27 04:29:25;;;;;;;22.95;11.70;;;;;;;;;;7364002;19;20151;-75
2022/01/27 04:31:55;;;;;;;22.77;12.70;;;;;;;;;;7364950;19;20144;-74
2022/01/27 04:34:25;;;;;;;28.58;13.88;;;;;;;;;;7364578;19;20645;-75
2022/01/27 04:36:59;;;;;;;24.88;13.23;;;;;;;;;;7374955;19;20598;-76
2022/01/27 04:39:35;;;;;;;32.38;13.40;;;;;;;;;;7367228;19;20128;-75
2022/01/27 04:42:10;;;;;;;28.73;13.63;;;;;;;;;;7361217;19;20459;-68
2022/01/27 04:44:47;;;;;;;27.33;13.23;;;;;;;;;;7360990;19;20479;-67
2022/01/27 04:47:23;;;;;;;21.60;12.43;;;;;;;;;;7364287;19;20127;-66
2022/01/27 04:49:53;;;;;;;29.83;12.77;;;;;;;;;;7360338;19;20141;-68
2022/01/27 04:52:31;;;;;;;29.10;13.07;;;;;;;;;;7366041;19;20135;-67
2022/01/27 04:55:07;;;;;;;23.10;12.30;;;;;;;;;;7365391;19;20594;-67
2022/01/27 04:57:39;;;;;;;28.10;12.00;;;;;;;;;;7357840;19;20199;-67
2022/01/27 05:00:12;;;;;;;31.05;14.43;;;;;;;;;;7361463;19;20481;-67
2022/01/27 05:02:46;;;;;;;28.00;13.68;;;;;;;;;;7344731;19;21073;-67
2022/01/27 05:05:18;;;;;;;30.00;14.85;;;;;;;;;;7364021;19;20123;-68
2022/01/27 05:07:56;;;;;;;22.55;13.20;;;;;;;;;;7370481;19;20237;-67
2022/01/27 05:10:30;;;;;;;26.85;12.85;;;;;;;;;;7367357;19;20142;-67
2022/01/27 05:13:07;;;;;;;24.65;12.80;;;;;;;;;;7374695;19;20144;-69
2022/01/27 05:15:43;;;;;;;25.70;13.48;;;;;;;;;;7365025;19;20503;-68
2022/01/27 05:18:12;;;;;;;27.17;13.68;;;;;;;;;;7376101;19;20139;-67
2022/01/27 05:20:42;;;;;;;28.00;14.27;;;;;;;;;;7361025;19;20180;-67
2022/01/27 05:23:14;;;;;;;26.55;12.23;;;;;;;;;;7366240;19;20135;-67
2022/01/27 05:25:44;;;;;;;28.42;13.70;;;;;;;;;;7373611;19;20142;-67
2022/01/27 05:28:14;;;;;;;30.55;14.30;;;;;;;;;;7375551;19;20139;-66
2022/01/27 05:30:43;;;;;;;33.63;14.20;;;;;;;;;;7370605;19;20127;-65
2022/01/27 05:33:13;;;;;;;30.98;14.63;;;;;;;;;;7366615;19;20153;-65
2022/01/27 05:35:45;;;;;;;25.20;15.13;;;;;;;;;;7360643;19;20618;-66
2022/01/27 05:38:19;;;;;;;32.03;17.25;;;;;;;;;;7357671;19;20150;-67
2022/01/27 05:40:49;;;;;;;33.33;18.20;;;;;;;;;;7382146;19;21035;-75
2022/01/27 05:43:21;;;;;;;32.15;16.63;;;;;;;;;;7383452;19;20483;-75
2022/01/27 05:45:52;;;;;;;37.15;18.55;;;;;;;;;;7406917;19;20144;-75
2022/01/27 05:48:22;;;;;;;35.88;18.08;;;;;;;;;;7409173;19;20127;-76
2022/01/27 05:50:51;;;;;;;31.88;16.23;;;;;;;;;;7377849;19;20143;-73
2022/01/27 05:53:24;;;;;;;34.17;17.92;;;;;;;;;;7396904;19;20151;-74
2022/01/27 05:55:54;;;;;;;35.22;16.33;;;;;;;;;;7406344;19;20156;-74
2022/01/27 05:58:25;;;;;;;33.75;16.98;;;;;;;;;;7409968;19;20146;-74
2022/01/27 06:00:57;;;;;;;31.17;17.10;;;;;;;;;;7403695;19;20143;-74
2022/01/27 06:03:26;;;;;;;38.72;17.55;;;;;;;;;;7404921;19;20143;-74
2022/01/27 06:05:56;;;;;;;33.70;16.00;;;;;;;;;;7406589;19;20147;-73
2022/01/27 06:08:31;;;;;;;34.80;18.45;;;;;;;;;;7405350;19;20147;-73
2022/01/27 06:11:00;;;;;;;39.40;17.75;;;;;;;;;;7388026;19;20504;-69
2022/01/27 06:13:30;;;;;;;38.25;18.58;;;;;;;;;;7378951;19;20617;-69
2022/01/27 06:16:02;;;;;;;32.28;17.23;;;;;;;;;;7376249;19;20218;-69
2022/01/27 06:18:31;;;;;;;35.58;17.20;;;;;;;;;;7374632;19;20143;-69
2022/01/27 06:21:03;;;;;;;33.45;17.85;;;;;;;;;;7374880;19;20144;-68
2022/01/27 06:23:36;;;;;;;34.53;19.35;;;;;;;;;;7369169;19;20199;-68
2022/01/27 06:26:06;;;;;;;40.45;19.48;;;;;;;;;;7370208;19;20131;-68
2022/01/27 06:28:35;;;;;;;55.25;26.80;;;;;;;;;;7377078;19;20147;-67
2022/01/27 06:31:05;;;;;;;38.80;17.08;;;;;;;;;;7374684;19;20594;-68
2022/01/27 06:33:35;;;;;;;29.85;15.48;;;;;;;;;;7376627;19;20139;-68
2022/01/27 06:36:04;;;;;;;35.95;22.27;;;;;;;;;;7370029;19;20139;-69
2022/01/27 06:38:37;;;;;;;32.33;16.48;;;;;;;;;;7377525;19;20614;-68
2022/01/27 06:41:06;;;;;;;47.05;17.38;;;;;;;;;;7382709;19;20139;-72
2022/01/27 06:43:36;;;;;;;32.63;16.65;;;;;;;;;;7390200;19;20142;-73
2022/01/27 06:46:06;;;;;;;34.20;15.85;;;;;;;;;;7397008;19;20142;-72
2022/01/27 06:48:35;;;;;;;31.13;15.32;;;;;;;;;;7391041;19;20132;-72
2022/01/27 06:51:10;;;;;;;27.08;14.75;;;;;;;;;;7392355;19;20216;-73
2022/01/27 06:53:42;;;;;;;26.83;14.45;;;;;;;;;;7382271;19;20140;-73
2022/01/27 06:56:14;;;;;;;29.73;13.57;;;;;;;;;;7390658;19;20135;-73
2022/01/27 06:58:43;;;;;;;30.90;16.58;;;;;;;;;;7389855;19;20215;-74
2022/01/27 07:01:13;;;;;;;26.88;14.18;;;;;;;;;;7389620;19;20155;-73
2022/01/27 07:03:43;;;;;;;26.83;13.50;;;;;;;;;;7391350;19;20154;-73
2022/01/27 07:06:13;;;;;;;28.20;13.93;;;;;;;;;;7390309;19;20621;-73
2022/01/27 07:08:45;;;;;;;31.38;14.82;;;;;;;;;;7392548;19;20139;-73
2022/01/27 07:11:15;;;;;;;29.38;13.90;;;;;;;;;;7378613;19;20801;-68
2022/01/27 07:13:44;;;;;;;28.25;15.15;;;;;;;;;;7377066;19;20181;-68
2022/01/27 07:16:14;;;;;;;27.30;14.05;;;;;;;;;;7377279;19;20143;-68
2022/01/27 07:18:44;;;;;;;29.52;14.68;;;;;;;;;;7376276;19;20148;-67
2022/01/27 07:21:13;;;;;;;29.17;15.05;;;;;;;;;;7366266;19;20159;-68
2022/01/27 07:23:46;;;;;;;33.03;15.00;;;;;;;;;;7375224;19;20139;-68
2022/01/27 07:26:16;;;;;;;21.40;11.32;;;;;;;;;;7372243;19;20131;-68
2022/01/27 07:28:46;;;;;;;24.40;12.60;;;;;;;;;;7371803;19;20187;-68
2022/01/27 07:31:15;;;;;;;27.27;12.38;;;;;;;;;;7372958;19;20124;-67
2022/01/27 07:33:47;;;;;;;23.40;11.55;;;;;;;;;;7377338;19;20154;-68
2022/01/27 07:36:17;;;;;;;24.05;12.35;;;;;;;;;;7374597;19;20146;-68
2022/01/27 07:38:50;;;;;;;27.17;12.75;;;;;;;;;;7373138;19;20139;-68
2022/01/27 07:41:20;;;;;;;26.38;11.77;;;;;;;;;;7384611;19;20139;-74
2022/01/27 07:43:50;;;;;;;23.38;12.82;;;;;;;;;;7394360;19;20482;-74
2022/01/27 07:46:20;;;;;;;29.60;14.65;;;;;;;;;;7397902;19;20505;-74
2022/01/27 07:48:50;;;;;;;32.35;15.55;;;;;;;;;;7395083;19;20138;-73
2022/01/27 07:51:20;;;;;;;30.77;14.02;;;;;;;;;;7384641;19;20139;-74
2022/01/27 07:53:52;;;;;;;30.13;14.60;;;;;;;;;;7391637;19;20150;-73
2022/01/27 07:56:22;;;;;;;27.10;12.63;;;;;;;;;;7390797;19;20494;-74
2022/01/27 07:58:51;;;;;;;28.80;12.55;;;;;;;;;;7381495;19;20124;-75
2022/01/27 08:01:21;;;;;;;33.40;14.63;;;;;;;;;;7378150;19;20189;-75
2022/01/27 08:03:51;;;;;;;27.55;13.77;;;;;;;;;;7383703;19;20139;-74
2022/01/27 08:06:20;;;;;;;27.48;14.00;;;;;;;;;;7380823;19;20679;-74
2022/01/27 08:08:55;;;;;;;31.20;13.80;;;;;;;;;;7378464;19;20133;-74
2022/01/27 08:11:24;;;;;;;33.95;16.38;;;;;;;;;;7381019;19;20132;-74
2022/01/27 08:13:54;;;;;;;30.83;14.15;;;;;;;;;;7386636;19;20732;-75
2022/01/27 08:16:24;;;;;;;35.75;14.85;;;;;;;;;;7385451;19;20123;-74
2022/01/27 08:18:53;;;;;;;29.00;13.15;;;;;;;;;;7384021;19;20132;-73
2022/01/27 08:21:23;;;;;;;28.88;12.77;;;;;;;;;;7376422;19;20145;-74
2022/01/27 08:23:56;;;;;;;30.00;12.80;;;;;;;;;;7370131;19;20147;-73
2022/01/27 08:26:35;;;;;;;30.15;13.20;;;;;;;;;;7378607;19;20152;-74
2022/01/27 08:29:13;;;;;;;24.50;13.60;;;;;;;;;;7376770;19;20165;-74
2022/01/27 08:31:58;;;;;;;29.65;13.48;;;3.30;76.90;;;;;;7371247;19;20139;-76
2022/01/27 08:34:36;;;;;;;36.30;14.07;;;1.80;67.60;;;;;;7408748;19;20148;-76
2022/01/27 08:37:07;;;;;;;32.00;14.40;;;1.80;67.60;;;;;;7405309;19;20204;-76
2022/01/27 08:39:41;;;;;;;28.23;13.32;;;1.90;67.40;;;;;;7409352;19;20164;-77
2022/01/27 08:42:11;;;;;;;29.95;12.57;;;1.90;67.20;;;;;;7411545;19;20142;-77
2022/01/27 08:44:41;;;;;;;39.05;14.48;;;1.90;67.30;;;;;;7416086;19;20183;-77
2022/01/27 08:47:12;;;;;;;33.65;13.75;;;1.90;67.10;;;;;;7419106;19;20132;-77
2022/01/27 08:49:43;;;;;;;34.47;13.68;;;2.10;66.70;;;;;;7415742;19;20127;-77
2022/01/27 08:52:13;;;;;;;37.20;14.70;;;2.00;66.60;;;;;;7414359;19;20164;-78
2022/01/27 08:54:45;;;;;;;36.65;13.98;;;2.00;66.60;;;;;;7413699;19;20138;-77
2022/01/27 08:57:17;;;;;;;35.25;13.32;;;2.00;66.50;;;;;;7412368;19;20123;-76
2022/01/27 08:59:49;;;;;;;33.38;14.90;;;2.10;65.90;;;;;;7396415;19;20112;-79
2022/01/27 09:02:18;;;;;;;37.75;13.55;;;2.10;65.50;;;;;;7400025;19;20180;-79
2022/01/27 09:04:48;;;;;;;32.72;13.38;;;2.10;64.90;;;;;;7405556;19;20126;-76
2022/01/27 09:07:18;;;;;;;32.67;12.60;;;2.20;64.70;;;;;;7392475;19;20128;-77
2022/01/27 09:09:52;;;;;;;36.95;14.63;;;;;;;;;;7415609;19;20571;-77
2022/01/27 09:12:22;;;;;;;30.63;13.25;;;;;;;;;;7414461;19;20143;-76
2022/01/27 09:14:52;;;;;;;32.65;13.93;;;;;;;;;;7414859;19;20140;-77
2022/01/27 09:17:25;;;;;;;28.52;12.88;;;;;;;;;;7415648;19;20132;-76
2022/01/27 09:19:55;;;;;;;25.92;12.43;;;;;;;;;;7417643;19;20151;-78
2022/01/27 09:22:27;;;;;;;28.48;13.68;;;;;;;;;;7411283;19;20128;-77
2022/01/27 09:25:07;;;;;;;26.02;13.40;;;;;;;;;;7417541;19;20175;-77
2022/01/27 09:27:37;;;;;;;30.50;12.10;;;;;;;;;;7420841;19;20139;-77
2022/01/27 09:30:07;;;;;;;27.67;13.00;;;;;;;;;;7418131;19;20135;-77
2022/01/27 09:32:36;;;;;;;16.88;9.48;;;;;;;;;;7417121;19;20164;-76
2022/01/27 09:35:06;;;;;;;21.48;9.32;;;;;;;;;;7419522;19;20160;-76
2022/01/27 09:37:39;;;;;;;19.65;8.88;;;;;;;;;;7419513;19;20131;-77
2022/01/27 09:40:12;;;;;;;14.63;8.10;;;;;;;;;;7420548;19;20126;-77
2022/01/27 09:42:49;;;;;;;14.32;7.63;;;;;;;;;;7418350;19;20128;-76
2022/01/27 09:45:18;;;;;;;18.17;8.80;;;;;;;;;;7418554;19;20131;-76
2022/01/27 09:47:54;;;;;;;15.93;8.20;;;;;;;;;;7416448;19;20151;-77
2022/01/27 09:50:28;;;;;;;14.20;8.32;;;;;;;;;;7416901;19;20501;-77
2022/01/27 09:53:00;;;;;;;16.98;7.78;;;;;;;;;;7415019;19;20141;-77
2022/01/27 09:55:32;;;;;;;15.05;8.77;;;;;;;;;;7404091;19;20138;-77
2022/01/27 09:58:02;;;;;;;18.17;9.65;;;;;;;;;;7406818;19;20127;-77
2022/01/27 10:00:32;;;;;;;14.05;7.35;;;;;;;;;;7412544;19;20138;-76
2022/01/27 10:03:09;;;;;;;24.50;9.30;;;;;;;;;;7415444;19;20161;-76
2022/01/27 10:05:41;;;;;;;16.42;8.10;;;;;;;;;;7420095;19;20132;-76
2022/01/27 10:08:14;;;;;;;19.75;8.02;;;;;;;;;;7420291;19;20140;-76
2022/01/27 10:10:50;;;;;;;17.27;7.93;;;;;;;;;;7420205;19;20229;-76
2022/01/27 10:13:31;;;;;;;17.23;8.68;;;;;;;;;;7422589;19;20127;-76
2022/01/27 10:16:01;;;;;;;15.50;7.53;;;;;;;;;;7422638;19;20143;-75
2022/01/27 10:18:35;;;;;;;14.15;7.93;;;;;;;;;;7419019;19;20549;-76
2022/01/27 10:21:05;;;;;;;14.15;7.93;;;;;;;;;;7420405;19;20202;-76
2022/01/27 10:23:37;;;;;;;21.25;8.40;;;;;;;;;;7422234;19;20183;-77
2022/01/27 10:26:19;;;;;;;15.55;7.93;;;;;;;;;;7423902;19;20132;-77
2022/01/27 10:29:00;;;;;;;18.63;8.20;;;;;;;;;;7425146;19;20144;-77
2022/01/27 10:31:30;;;;;;;13.63;7.30;;;;;;;;;;7424750;19;20139;-77
2022/01/27 10:34:03;;;;;;;20.25;8.80;;;;;;;;;;7425061;19;20135;-77
2022/01/27 10:36:35;;;;;;;17.48;9.25;;;;;;;;;;7422312;19;20127;-77
2022/01/27 10:39:06;;;;;;;14.65;7.22;;;;;;;;;;7422733;19;20616;-77
2022/01/27 10:41:39;;;;;;;12.98;7.95;;;;;;;;;;7422476;19;20132;-77
2022/01/27 10:44:14;;;;;;;16.00;7.47;;;;;;;;;;7422105;19;20495;-77
2022/01/27 10:46:49;;;;;;;14.27;7.60;;;;;;;;;;7424099;19;20131;-76
2022/01/27 10:49:27;;;;;;;16.60;8.88;;;;;;;;;;7424267;19;20119;-75
2022/01/27 10:51:59;;;;;;;14.20;7.47;;;;;;;;;;7424359;19;20127;-75
2022/01/27 10:54:36;;;;;;;18.30;7.18;;;;;;;;;;7424028;19;20182;-77
2022/01/27 10:57:09;;;;;;;14.02;7.15;;;;;;;;;;7423210;19;20131;-76
2022/01/27 10:59:43;;;;;;;13.20;6.63;;;;;;;;;;7422081;19;20155;-76
2022/01/27 11:02:13;;;;;;;14.80;7.05;;;;;;;;;;7420694;19;20176;-76
2022/01/27 11:04:43;;;;;;;12.73;6.43;;;;;;;;;;7422862;19;20139;-76
2022/01/27 11:07:16;;;;;;;15.27;7.63;;;;;;;;;;7426656;19;20170;-77
2022/01/27 11:09:46;;;;;;;10.82;5.30;;;;;;;;;;7425504;19;20168;-76
2022/01/27 11:12:18;;;;;;;11.63;6.05;;;;;;;;;;7422895;19;20128;-75
2022/01/27 11:14:50;;;;;;;10.65;5.82;;;;;;;;;;7391119;19;20776;-78
2022/01/27 11:17:20;;;;;;;12.07;6.93;;;;;;;;;;7427054;19;20160;-77
2022/01/27 11:22:57;;;;;;;13.00;6.45;;;;;;;;;;7378804;19;20131;-69
2022/01/27 11:28:31;;;;;;;12.75;6.13;;;;;;;;;;7376024;19;20203;-70
2022/01/27 11:31:09;;;;;;;15.02;6.45;;;;;;;;;;7374763;19;20167;-71
2022/01/27 11:33:38;;;;;;;12.55;6.13;;;;;;;;;;7378106;19;20928;-71
2022/01/27 11:36:09;;;;;;;11.38;6.82;;;;;;;;;;7375596;19;20127;-71
2022/01/27 11:38:40;;;;;;;15.77;6.78;;;;;;;;;;7375884;19;20699;-71
2022/01/27 11:41:09;;;;;;;10.30;6.10;;;;;;;;;;7377523;19;20139;-71
2022/01/27 11:43:42;;;;;;;17.45;7.00;;;;;;;;;;7378449;19;20508;-70
2022/01/27 11:46:16;;;;;;;11.88;6.65;;;;;;;;;;7377230;19;20148;-70
2022/01/27 11:48:45;;;;;;;14.30;6.63;;;;;;;;;;7376541;19;20898;-69
2022/01/27 11:51:16;;;;;;;14.85;8.05;;;;;;;;;;7379332;19;20497;-77
2022/01/27 11:53:46;;;;;;;15.43;7.30;;;;;;;;;;7381543;19;20135;-76
2022/01/27 11:56:31;;;;;;;14.85;7.20;;;;;;;;;;7381240;19;20135;-76
2022/01/27 11:59:04;;;;;;;16.63;9.10;;;;;;;;;;7381406;19;20140;-75
2022/01/27 12:01:34;;;;;;;23.83;7.43;;;;;;;;;;7380668;19;20155;-76
2022/01/27 12:04:15;;;;;;;13.07;7.28;;;;;;;;;;7380118;19;20552;-76
2022/01/27 12:06:45;;;;;;;14.25;7.78;;;;;;;;;;7381661;19;20674;-77
2022/01/27 12:09:30;;;;;;;14.55;8.45;;;;;;;;;;7382628;19;20477;-77
2022/01/27 12:12:02;;;;;;;16.83;7.57;;;;;;;;;;7382849;19;20126;-77
2022/01/27 12:14:50;;;;;;;18.27;9.52;;;;;;;;;;7384749;19;20135;-75
2022/01/27 12:17:28;;;;;;;15.95;7.85;;;;;;;;;;7388220;19;20475;-76
2022/01/27 12:19:59;;;;;;;15.95;9.05;;;;;;;;;;7386162;19;20143;-76
2022/01/27 12:22:30;;;;;;;13.60;7.40;;;;;;;;;;7387585;19;20143;-76
2022/01/27 12:25:01;;;;;;;14.07;7.43;;;;;;;;;;7384326;19;20131;-76
2022/01/27 12:27:32;;;;;;;12.88;7.05;;;;;;;;;;7387291;19;20748;-77
2022/01/27 12:30:03;;;;;;;18.98;8.40;;;;;;;;;;7386456;19;20130;-78
2022/01/27 12:32:36;;;;;;;16.92;9.20;;;;;;;;;;7386507;19;20997;-77
2022/01/27 12:35:10;;;;;;;17.95;7.78;;;;;;;;;;7386688;19;20135;-77
2022/01/27 12:37:41;;;;;;;14.77;8.43;;;;;;;;;;7390884;19;20128;-77
2022/01/27 12:40:12;;;;;;;18.50;8.95;;;;;;;;;;7385957;19;20142;-76
2022/01/27 12:42:55;;;;;;;16.08;9.05;;;;;;;;;;7385794;19;20143;-75
2022/01/27 12:45:27;;;;;;;16.95;7.95;;;;;;;;;;7385278;19;20150;-76
2022/01/27 12:48:01;;;;;;;12.70;7.28;;;;;;;;;;7385805;19;20128;-76
2022/01/27 12:50:31;;;;;;;13.88;7.80;;;;;;;;;;7388396;19;20604;-76
2022/01/27 12:53:09;;;;;;;17.63;8.88;;;;;;;;;;7382107;19;20750;-77
2022/01/27 12:55:40;;;;;;;16.15;7.68;;;;;;;;;;7365378;19;20128;-76
2022/01/27 12:58:11;;;;;;;13.65;7.60;;;;;;;;;;7397267;19;20376;-83
2022/01/27 13:00:44;;;;;;;19.83;9.27;;;;;;;;;;7394890;19;20146;-78
2022/01/27 13:03:16;;;;;;;19.17;8.25;;;;;;;;;;7401459;19;20255;-77
2022/01/27 13:05:48;;;;;;;15.85;8.07;;;;;;;;;;7397441;19;20183;-80
2022/01/27 13:08:18;;;;;;;14.25;7.47;;;;;;;;;;7402166;19;20136;-79
2022/01/27 13:10:53;;;;;;;15.27;7.57;;;;;;;;;;7403549;19;20582;-79
2022/01/27 13:13:27;;;;;;;14.82;8.40;;;;;;;;;;7397814;19;20127;-77
2022/01/27 13:16:02;;;;;;;20.08;9.00;;;;;;;;;;7391398;19;20164;-77
2022/01/27 13:18:42;;;;;;;20.65;10.35;;;;;;;;;;7378287;19;20182;-80
2022/01/27 13:21:22;;;;;;;15.82;7.70;;;;;;;;;;7401392;19;20172;-79
2022/01/27 13:24:03;;;;;;;13.85;7.57;;;;;;;;;;7401820;19;20136;-77
2022/01/27 13:26:33;;;;;;;17.80;9.75;;;;;;;;;;7378734;19;20150;-79
2022/01/27 13:29:03;;;;;;;22.13;8.32;;;;;;;;;;7386915;19;20504;-80
2022/01/27 13:31:33;;;;;;;19.05;8.95;;;;;;;;;;7387558;19;20148;-79
2022/01/27 13:34:07;;;;;;;15.88;8.63;;;;;;;;;;7384657;19;20146;-79
2022/01/27 13:36:37;;;;;;;19.63;10.43;;;;;;;;;;7380289;19;20501;-77
2022/01/27 13:39:24;;;;;;;15.57;8.63;;;;;;;;;;7380973;19;20612;-78
2022/01/27 13:41:54;;;;;;;19.83;9.00;;;;;;;;;;7385861;19;20135;-77
2022/01/27 13:44:24;;;;;;;27.08;9.25;;;;;;;;;;7383368;19;20159;-76
2022/01/27 13:46:59;;;;;;;25.33;9.13;;;;;;;;;;7381926;19;20143;-78
2022/01/27 13:49:32;;;;;;;15.90;7.93;;;;;;;;;;7384441;19;20127;-77
2022/01/27 13:52:04;;;;;;;16.98;9.98;;;;;;;;;;7380906;19;20139;-78
2022/01/27 13:54:40;;;;;;;21.58;8.88;;;;;;;;;;7387579;19;20158;-78
2022/01/27 13:57:11;;;;;;;14.75;8.10;;;;;;;;;;7378979;19;20701;-78
2022/01/27 13:59:45;;;;;;;13.32;7.57;;;;;;;;;;7383124;19;20140;-78
2022/01/27 14:02:16;;;;;;;14.93;7.53;;;;;;;;;;7362534;19;20162;-79
2022/01/27 14:04:48;;;;;;;16.27;9.10;;;;;;;;;;7380805;19;21198;-80
2022/01/27 14:07:28;;;;;;;18.27;8.00;;;;;;;;;;7379074;19;20124;-76
2022/01/27 14:09:58;;;;;;;19.95;8.25;;;;;;;;;;7370762;19;20135;-75
2022/01/27 14:12:31;;;;;;;15.05;7.53;;;;;;;;;;7372651;19;20148;-74
2022/01/27 14:15:01;;;;;;;18.92;8.25;;;;;;;;;;7376816;19;20218;-75
2022/01/27 14:17:31;;;;;;;19.63;8.82;;;;;;;;;;7373953;19;20143;-75
2022/01/27 14:20:04;;;;;;;13.15;7.72;;;;;;;;;;7376090;19;20167;-75
2022/01/27 14:22:40;;;;;;;12.20;6.95;;;;;;;;;;7380045;19;20544;-76
2022/01/27 14:25:21;;;;;;;13.57;7.55;;;;;;;;;;7374770;19;20495;-75
2022/01/27 14:27:51;;;;;;;13.63;6.97;;;;;;;;;;7383265;19;20135;-75
2022/01/27 14:30:20;;;;;;;14.93;7.53;;;;;;;;;;7378510;19;20143;-76
2022/01/27 14:32:51;;;;;;;13.55;7.05;;;;;;;;;;7378700;19;20143;-74
2022/01/27 14:35:24;;;;;;;9.88;6.68;;;;;;;;;;7378398;19;20151;-76
2022/01/27 14:37:57;;;;;;;14.48;7.20;;;;;;;;;;7379492;19;20151;-76
2022/01/27 14:40:27;;;;;;;12.73;7.20;;;;;;;;;;7382802;19;20142;-74
2022/01/27 14:42:59;;;;;;;12.00;6.95;;;;;;;;;;7379834;19;20729;-75
2022/01/27 14:45:29;;;;;;;13.43;7.45;;;;;;;;;;7380434;19;20250;-76
2022/01/27 14:48:02;;;;;;;11.07;6.20;;;;;;;;;;7379538;19;20139;-75
2022/01/27 14:50:37;;;;;;;13.82;6.97;;;;;;;;;;7379331;19;20145;-74
2022/01/27 14:53:08;;;;;;;13.88;7.10;;;;;;;;;;7379512;19;20150;-75
2022/01/27 14:55:37;;;;;;;15.07;7.35;;;;;;;;;;7378006;19;20487;-76
2022/01/27 14:58:07;;;;;;;13.23;7.82;;;;;;;;;;7378348;19;20139;-74
2022/01/27 15:00:37;;;;;;;14.30;7.53;;;;;;;;;;7374875;19;20143;-75
2022/01/27 15:03:09;;;;;;;13.10;6.82;;;;;;;;;;7377945;19;20135;-75
2022/01/27 15:05:43;;;;;;;14.95;7.03;;;;;;;;;;7375431;19;20135;-74
2022/01/27 15:08:13;;;;;;;12.85;6.53;;;;;;;;;;7378826;19;20128;-73
2022/01/27 15:10:43;;;;;;;9.50;5.50;;;;;;;;;;7375131;19;20749;-68
2022/01/27 15:13:13;;;;;;;14.77;7.38;;;;;;;;;;7375797;19;20162;-67
2022/01/27 15:21:09;;;;;;;11.07;6.10;;;;;;;;;;7369792;19;20239;-68